createdAt,value
2023-02-28T00:01:33.595Z,3.30
2023-02-28T00:04:01.263Z,3.26
2023-02-28T00:06:29.000Z,3.28
2023-02-28T00:08:56.462Z,3.29
2023-02-28T00:11:24.317Z,3.30
2023-02-28T00:13:51.514Z,3.30
2023-02-28T00:16:23.699Z,3.30
2023-02-28T00:18:52.086Z,3.33
2023-02-28T00:21:21.198Z,3.37
2023-02-28T00:23:48.890Z,3.31
2023-02-28T00:26:16.258Z,3.26
2023-02-28T00:28:46.337Z,3.21
2023-02-28T00:31:13.771Z,3.21
2023-02-28T00:33:41.053Z,3.16
2023-02-28T00:36:12.618Z,3.15
2023-02-28T00:38:41.399Z,3.15
2023-02-28T00:41:09.622Z,3.08
2023-02-28T00:43:39.981Z,3.03
2023-02-28T00:46:08.576Z,3.01
2023-02-28T00:48:36.466Z,3.01
2023-02-28T00:51:05.017Z,2.99
2023-02-28T00:53:33.603Z,3.02
2023-02-28T00:56:01.637Z,3.06
2023-02-28T00:58:29.706Z,3.02
2023-02-28T01:00:57.226Z,3.02
2023-02-28T01:03:24.783Z,3.00
2023-02-28T01:05:54.127Z,2.92
2023-02-28T01:08:21.843Z,2.88
2023-02-28T01:10:49.319Z,2.91
2023-02-28T01:13:17.365Z,2.97
2023-02-28T01:15:53.332Z,2.95
2023-02-28T01:18:21.872Z,2.97
2023-02-28T01:20:50.028Z,2.91
2023-02-28T01:23:17.510Z,2.93
2023-02-28T01:25:44.765Z,2.93
2023-02-28T01:28:12.023Z,2.89
2023-02-28T01:30:39.256Z,2.85
2023-02-28T01:33:07.189Z,2.90
2023-02-28T01:35:38.099Z,2.86
2023-02-28T01:38:20.984Z,2.83
2023-02-28T01:40:49.260Z,2.80
2023-02-28T01:43:30.631Z,2.79
2023-02-28T01:46:00.005Z,2.77
2023-02-28T01:48:38.103Z,2.74
2023-02-28T01:51:18.464Z,2.75
2023-02-28T01:53:53.465Z,2.79
2023-02-28T01:56:30.430Z,2.72
2023-02-28T01:58:57.966Z,2.71
2023-02-28T02:01:28.774Z,2.40
2023-02-28T02:04:01.252Z,2.37
2023-02-28T02:06:41.477Z,2.33
2023-02-28T02:09:12.809Z,2.23
2023-02-28T02:11:44.506Z,2.24
2023-02-28T02:15:08.858Z,2.21
2023-02-28T02:17:45.445Z,2.26
2023-02-28T02:20:48.888Z,2.18
2023-02-28T02:24:28.761Z,2.10
2023-02-28T02:27:27.274Z,2.22
2023-02-28T02:30:16.483Z,2.29
2023-02-28T02:33:25.625Z,2.35
2023-02-28T02:36:00.317Z,2.42
2023-02-28T02:39:00.167Z,2.49
2023-02-28T02:41:35.624Z,2.53
2023-02-28T02:44:39.673Z,2.41
2023-02-28T02:47:16.417Z,2.24
2023-02-28T02:49:52.774Z,2.28
2023-02-28T02:52:32.656Z,2.11
2023-02-28T02:55:02.513Z,2.17
2023-02-28T02:57:44.331Z,2.14
2023-02-28T03:00:13.532Z,2.12
2023-02-28T03:02:42.294Z,2.13
2023-02-28T03:05:27.931Z,2.09
2023-02-28T03:07:56.241Z,2.17
2023-02-28T03:10:39.076Z,2.20
2023-02-28T03:13:46.580Z,2.24
2023-02-28T03:17:10.401Z,2.26
2023-02-28T03:20:18.325Z,2.28
2023-02-28T03:23:05.663Z,2.26
2023-02-28T03:25:50.700Z,2.28
2023-02-28T03:28:49.551Z,2.28
2023-02-28T03:31:38.935Z,2.29
2023-02-28T03:34:20.571Z,2.32
2023-02-28T03:36:55.357Z,2.30
2023-02-28T03:39:35.350Z,2.32
2023-02-28T03:42:37.041Z,2.28
2023-02-28T03:45:27.207Z,2.26
2023-02-28T03:49:10.990Z,2.24
2023-02-28T03:51:42.499Z,2.18
2023-02-28T03:54:21.972Z,2.21
2023-02-28T03:57:05.519Z,2.24
2023-02-28T03:59:44.418Z,2.27
2023-02-28T04:02:11.776Z,2.33
2023-02-28T04:04:39.195Z,2.31
2023-02-28T04:07:09.712Z,2.27
2023-02-28T04:09:37.052Z,2.26
2023-02-28T04:12:05.105Z,2.21
2023-02-28T04:14:32.316Z,2.23
2023-02-28T04:16:59.574Z,2.26
2023-02-28T04:19:27.009Z,2.26
2023-02-28T04:21:55.193Z,2.27
2023-02-28T04:24:27.291Z,2.28
2023-02-28T04:26:57.923Z,2.26
2023-02-28T04:29:28.398Z,2.27
2023-02-28T04:32:00.520Z,2.29
2023-02-28T04:34:31.525Z,2.28
2023-02-28T04:37:12.436Z,2.23
2023-02-28T04:39:42.144Z,2.23
2023-02-28T04:42:10.377Z,2.23
2023-02-28T04:44:37.535Z,2.28
2023-02-28T04:47:04.798Z,2.28
2023-02-28T04:49:32.177Z,2.26
2023-02-28T04:51:59.435Z,2.30
2023-02-28T04:54:26.881Z,2.26
2023-02-28T04:56:54.036Z,2.26
2023-02-28T04:59:21.433Z,2.19
2023-02-28T05:01:50.241Z,2.14
2023-02-28T05:04:18.063Z,2.14
2023-02-28T05:06:45.825Z,2.21
2023-02-28T05:09:13.030Z,2.20
2023-02-28T05:11:40.826Z,2.16
2023-02-28T05:14:15.240Z,2.16
2023-02-28T05:16:42.973Z,2.18
2023-02-28T05:19:10.288Z,2.08
2023-02-28T05:21:51.278Z,2.07
2023-02-28T05:24:23.526Z,2.11
2023-02-28T05:26:53.882Z,2.11
2023-02-28T05:29:21.570Z,2.14
2023-02-28T05:31:49.481Z,2.09
2023-02-28T05:34:18.044Z,2.16
2023-02-28T05:36:45.492Z,2.04
2023-02-28T05:39:13.931Z,2.11
2023-02-28T05:41:43.492Z,2.05
2023-02-28T05:44:11.258Z,2.05
2023-02-28T05:46:39.181Z,2.10
2023-02-28T05:49:06.476Z,2.06
2023-02-28T05:51:36.358Z,2.14
2023-02-28T05:54:03.977Z,2.06
2023-02-28T05:56:31.225Z,2.06
2023-02-28T05:58:58.708Z,2.02
2023-02-28T06:01:35.547Z,2.09
2023-02-28T06:04:06.880Z,2.01
2023-02-28T06:06:37.970Z,1.97
2023-02-28T06:09:06.448Z,2.02
2023-02-28T06:11:34.238Z,1.97
2023-02-28T06:14:02.811Z,1.93
2023-02-28T06:16:32.430Z,1.97
2023-02-28T06:19:03.866Z,1.92
2023-02-28T06:21:31.840Z,1.87
2023-02-28T06:24:00.049Z,1.92
2023-02-28T06:26:27.771Z,2.00
2023-02-28T06:28:55.587Z,1.95
2023-02-28T06:31:24.195Z,1.91
2023-02-28T06:33:51.569Z,1.91
2023-02-28T06:36:20.036Z,1.87
2023-02-28T06:38:52.208Z,1.99
2023-02-28T06:41:19.491Z,2.12
2023-02-28T06:43:47.000Z,2.21
2023-02-28T06:46:15.464Z,2.23
2023-02-28T06:48:45.699Z,2.13
2023-02-28T06:51:21.154Z,2.05
2023-02-28T06:53:48.654Z,2.18
2023-02-28T06:56:21.228Z,2.09
2023-02-28T06:58:51.237Z,2.07
2023-02-28T07:01:19.849Z,2.16
2023-02-28T07:03:47.980Z,2.23
2023-02-28T07:06:15.153Z,2.22
2023-02-28T07:08:42.325Z,2.23
2023-02-28T07:11:09.719Z,2.35
2023-02-28T07:13:37.643Z,2.28
2023-02-28T07:16:10.040Z,2.34
2023-02-28T07:18:38.861Z,2.46
2023-02-28T07:21:12.948Z,2.48
2023-02-28T07:23:40.977Z,2.57
2023-02-28T07:26:15.571Z,2.53
2023-02-28T07:28:46.263Z,2.61
2023-02-28T07:31:18.053Z,2.70
2023-02-28T07:33:45.419Z,2.69
2023-02-28T07:36:18.301Z,2.73
2023-02-28T07:38:51.408Z,2.94
2023-02-28T07:41:22.852Z,2.90
2023-02-28T07:43:50.401Z,2.97
2023-02-28T07:46:18.599Z,2.98
2023-02-28T07:48:46.244Z,3.11
2023-02-28T07:51:13.730Z,2.91
2023-02-28T07:53:41.558Z,3.06
2023-02-28T07:56:08.959Z,3.28
2023-02-28T07:58:36.337Z,3.22
2023-02-28T08:01:11.960Z,3.21
2023-02-28T08:03:40.819Z,3.21
2023-02-28T08:06:17.078Z,3.12
2023-02-28T08:08:45.381Z,3.14
2023-02-28T08:11:12.606Z,2.96
2023-02-28T08:13:39.931Z,3.02
2023-02-28T08:16:07.570Z,2.94
2023-02-28T08:18:34.988Z,2.94
2023-02-28T08:21:09.089Z,3.13
2023-02-28T08:23:36.922Z,3.29
2023-02-28T08:26:05.021Z,3.34
2023-02-28T08:28:32.493Z,3.40
2023-02-28T08:31:00.174Z,3.39
2023-02-28T08:33:28.680Z,3.41
2023-02-28T08:35:57.298Z,3.48
2023-02-28T08:38:25.186Z,3.59
2023-02-28T08:41:01.127Z,3.59
2023-02-28T08:43:29.736Z,3.77
2023-02-28T08:46:00.419Z,3.91
2023-02-28T08:48:31.922Z,3.90
2023-02-28T08:51:10.215Z,3.83
2023-02-28T08:53:40.638Z,3.92
2023-02-28T08:56:17.655Z,3.99
2023-02-28T08:58:47.446Z,3.96
2023-02-28T09:01:19.956Z,3.94
2023-02-28T09:03:50.579Z,3.95
2023-02-28T09:06:20.872Z,4.04
2023-02-28T09:08:48.692Z,3.90
2023-02-28T09:11:16.932Z,3.87
2023-02-28T09:13:44.300Z,3.95
2023-02-28T09:16:15.563Z,4.08
2023-02-28T09:18:44.182Z,4.21
2023-02-28T09:21:16.564Z,4.30
2023-02-28T09:23:51.078Z,4.40
2023-02-28T09:26:23.571Z,4.56
2023-02-28T09:28:51.843Z,4.67
2023-02-28T09:31:26.873Z,4.82
2023-02-28T09:33:58.057Z,4.90
2023-02-28T09:36:38.058Z,4.93
2023-02-28T09:39:11.045Z,5.09
2023-02-28T09:41:49.452Z,5.09
2023-02-28T09:44:48.723Z,5.08
2023-02-28T09:47:35.036Z,5.09
2023-02-28T09:51:03.964Z,5.03
2023-02-28T09:53:45.737Z,5.14
2023-02-28T09:56:35.672Z,5.31
2023-02-28T09:59:10.835Z,5.39
2023-02-28T10:02:59.135Z,5.47
2023-02-28T10:05:34.214Z,5.72
2023-02-28T10:08:25.961Z,5.27
2023-02-28T10:11:02.532Z,5.80
2023-02-28T10:13:57.013Z,6.11
2023-02-28T10:16:38.491Z,5.06
2023-02-28T10:19:47.424Z,5.20
2023-02-28T10:23:21.228Z,5.96
2023-02-28T10:26:18.306Z,5.50
2023-02-28T10:28:46.395Z,6.09
2023-02-28T10:31:20.640Z,6.33
2023-02-28T10:33:50.050Z,5.23
2023-02-28T10:36:21.976Z,5.02
2023-02-28T10:38:52.324Z,5.41
2023-02-28T10:41:37.055Z,5.55
2023-02-28T10:44:24.324Z,5.47
2023-02-28T10:46:54.857Z,6.00
2023-02-28T10:49:32.577Z,6.56
2023-02-28T10:52:02.355Z,7.12
2023-02-28T10:54:38.705Z,7.37
2023-02-28T10:57:25.402Z,7.24
2023-02-28T11:00:14.807Z,7.27
2023-02-28T11:02:45.453Z,6.45
2023-02-28T11:05:35.477Z,6.98
2023-02-28T11:08:18.333Z,8.08
2023-02-28T11:10:54.646Z,8.09
2023-02-28T11:13:34.754Z,8.03
2023-02-28T11:16:08.272Z,8.27
2023-02-28T11:18:55.631Z,8.35
2023-02-28T11:21:31.360Z,8.27
2023-02-28T11:24:22.236Z,9.12
2023-02-28T11:26:50.108Z,8.05
2023-02-28T11:29:31.163Z,9.30
2023-02-28T11:32:32.368Z,6.33
2023-02-28T11:35:31.961Z,7.27
2023-02-28T11:38:00.064Z,7.36
2023-02-28T11:40:56.599Z,7.22
2023-02-28T11:43:57.434Z,7.09
2023-02-28T11:46:53.083Z,7.79
2023-02-28T11:49:54.618Z,7.63
2023-02-28T11:52:42.989Z,8.18
2023-02-28T11:55:20.892Z,8.20
2023-02-28T11:58:32.460Z,8.31
2023-02-28T12:01:38.961Z,8.18
2023-02-28T12:04:53.418Z,7.97
2023-02-28T12:07:58.440Z,7.91
2023-02-28T12:10:46.249Z,8.13
2023-02-28T12:13:32.916Z,8.27
2023-02-28T12:16:19.647Z,8.09
2023-02-28T12:19:07.627Z,8.29
2023-02-28T12:22:02.000Z,8.26
2023-02-28T12:25:02.205Z,8.21
2023-02-28T12:27:37.992Z,7.87
2023-02-28T12:30:22.757Z,8.03
2023-02-28T12:33:18.855Z,8.33
2023-02-28T12:35:57.937Z,7.60
2023-02-28T12:39:06.014Z,7.44
2023-02-28T12:42:25.765Z,7.34
2023-02-28T12:45:09.780Z,7.91
2023-02-28T12:47:41.724Z,8.12
2023-02-28T12:50:12.447Z,8.10
2023-02-28T12:53:05.016Z,8.24
2023-02-28T12:55:53.716Z,8.38
2023-02-28T12:59:07.233Z,8.37
2023-02-28T13:02:20.919Z,8.54
2023-02-28T13:05:08.662Z,7.35
2023-02-28T13:08:14.706Z,8.17
2023-02-28T13:10:55.245Z,8.21
2023-02-28T13:13:32.664Z,8.57
2023-02-28T13:16:11.188Z,9.30
2023-02-28T13:18:47.891Z,9.23
2023-02-28T13:21:45.919Z,8.94
2023-02-28T13:24:58.688Z,9.03
2023-02-28T13:27:42.813Z,8.84
2023-02-28T13:31:04.805Z,8.73
2023-02-28T13:33:58.082Z,8.89
2023-02-28T13:36:32.541Z,8.86
2023-02-28T13:39:06.297Z,7.84
2023-02-28T13:41:34.309Z,7.88
2023-02-28T13:44:27.759Z,8.64
2023-02-28T13:46:56.712Z,8.96
2023-02-28T13:49:26.380Z,9.14
2023-02-28T13:52:17.773Z,9.06
2023-02-28T13:55:25.862Z,8.46
2023-02-28T13:58:47.952Z,8.86
2023-02-28T14:01:35.807Z,7.94
2023-02-28T14:04:47.019Z,8.45
2023-02-28T14:07:24.590Z,8.99
2023-02-28T14:10:09.120Z,9.37
2023-02-28T14:12:55.720Z,9.94
2023-02-28T14:15:41.271Z,9.97
2023-02-28T14:18:31.799Z,9.82
2023-02-28T14:21:35.212Z,9.82
2023-02-28T14:24:35.388Z,9.72
2023-02-28T14:27:44.029Z,9.43
2023-02-28T14:31:12.585Z,8.49
2023-02-28T14:34:04.446Z,8.34
2023-02-28T14:36:40.692Z,8.77
2023-02-28T14:39:13.561Z,9.08
2023-02-28T14:41:46.178Z,9.27
2023-02-28T14:44:26.331Z,9.92
2023-02-28T14:47:04.808Z,10.24
2023-02-28T14:49:43.975Z,9.85
2023-02-28T14:52:24.307Z,9.80
2023-02-28T14:55:07.987Z,9.81
2023-02-28T14:57:55.310Z,10.42
2023-02-28T15:00:34.022Z,10.23
2023-02-28T15:03:21.952Z,9.89
2023-02-28T15:05:59.274Z,9.61
2023-02-28T15:08:30.009Z,9.69
2023-02-28T15:11:10.123Z,9.35
2023-02-28T15:13:49.436Z,8.86
2023-02-28T15:16:36.915Z,8.67
2023-02-28T15:19:27.074Z,8.44
2023-02-28T15:22:04.031Z,8.89
2023-02-28T15:24:53.310Z,9.51
2023-02-28T15:27:29.018Z,11.15
2023-02-28T15:30:01.830Z,11.57
2023-02-28T15:32:40.636Z,12.10
2023-02-28T15:35:25.699Z,13.20
2023-02-28T15:38:19.010Z,12.68
2023-02-28T15:40:59.217Z,12.29
2023-02-28T15:43:38.731Z,13.33
2023-02-28T15:46:13.200Z,14.29
2023-02-28T15:48:59.056Z,14.42
2023-02-28T15:51:39.096Z,13.22
2023-02-28T15:54:14.011Z,11.71
2023-02-28T15:56:50.479Z,12.29
2023-02-28T15:59:31.375Z,13.25
2023-02-28T16:02:22.019Z,13.93
2023-02-28T16:05:07.317Z,13.66
2023-02-28T16:07:41.981Z,14.21
2023-02-28T16:10:15.047Z,14.37
2023-02-28T16:12:43.115Z,14.29
2023-02-28T16:15:29.807Z,14.29
2023-02-28T16:17:58.479Z,14.13
2023-02-28T16:20:31.579Z,13.36
2023-02-28T16:23:02.354Z,13.40
2023-02-28T16:25:41.625Z,13.25
2023-02-28T16:28:41.394Z,12.53
2023-02-28T16:31:09.021Z,12.39
2023-02-28T16:33:36.262Z,11.74
2023-02-28T16:36:03.948Z,11.51
2023-02-28T16:38:31.119Z,10.99
2023-02-28T16:41:01.073Z,10.81
2023-02-28T16:43:29.048Z,9.95
2023-02-28T16:46:01.443Z,8.53
2023-02-28T16:48:28.933Z,8.05
2023-02-28T16:50:56.113Z,8.29
2023-02-28T16:53:23.289Z,8.26
2023-02-28T16:55:53.080Z,8.17
2023-02-28T16:58:22.638Z,8.32
2023-02-28T17:00:50.143Z,8.02
2023-02-28T17:03:33.283Z,8.04
2023-02-28T17:06:01.906Z,8.04
2023-02-28T17:08:30.411Z,7.79
2023-02-28T17:10:57.605Z,7.58
2023-02-28T17:13:25.198Z,7.25
2023-02-28T17:15:52.573Z,7.06
2023-02-28T17:18:22.081Z,6.91
2023-02-28T17:20:50.299Z,6.80
2023-02-28T17:23:17.603Z,6.57
2023-02-28T17:25:56.381Z,6.43
2023-02-28T17:28:26.163Z,6.31
2023-02-28T17:30:53.477Z,6.24
2023-02-28T17:33:20.945Z,6.18
2023-02-28T17:35:48.356Z,6.02
2023-02-28T17:38:19.919Z,5.88
2023-02-28T17:40:47.296Z,5.82
2023-02-28T17:43:15.761Z,5.73
2023-02-28T17:45:43.088Z,5.77
2023-02-28T17:48:13.852Z,5.66
2023-02-28T17:50:41.234Z,5.58
2023-02-28T17:53:08.657Z,5.49
2023-02-28T17:55:36.428Z,5.42
2023-02-28T17:58:04.708Z,5.35
2023-02-28T18:00:35.219Z,5.29
2023-02-28T18:03:02.670Z,5.20
2023-02-28T18:05:30.986Z,5.12
2023-02-28T18:07:58.528Z,5.04
2023-02-28T18:10:25.718Z,4.89
2023-02-28T18:12:54.898Z,4.77
2023-02-28T18:15:23.361Z,4.67
2023-02-28T18:17:51.734Z,4.64
2023-02-28T18:20:19.839Z,4.61
2023-02-28T18:22:47.488Z,4.60
2023-02-28T18:25:16.969Z,4.61
2023-02-28T18:27:58.123Z,4.59
2023-02-28T18:30:35.719Z,4.51
2023-02-28T18:33:03.417Z,4.44
2023-02-28T18:35:35.196Z,4.33
2023-02-28T18:38:19.839Z,4.21
2023-02-28T18:40:58.094Z,4.15
2023-02-28T18:43:27.894Z,4.14
2023-02-28T18:45:55.531Z,4.17
2023-02-28T18:48:23.665Z,4.14
2023-02-28T18:50:52.174Z,4.14
2023-02-28T18:53:20.310Z,4.10
2023-02-28T18:55:47.646Z,4.04
2023-02-28T18:58:15.324Z,4.11
2023-02-28T19:00:43.911Z,4.15
2023-02-28T19:03:12.168Z,4.06
2023-02-28T19:05:39.912Z,3.93
2023-02-28T19:08:07.109Z,3.81
2023-02-28T19:10:35.197Z,3.77
2023-02-28T19:13:02.458Z,3.69
2023-02-28T19:15:29.935Z,3.62
2023-02-28T19:17:57.199Z,3.66
2023-02-28T19:20:26.678Z,3.61
2023-02-28T19:22:54.116Z,3.52
2023-02-28T19:25:21.438Z,3.46
2023-02-28T19:27:52.018Z,3.44
2023-02-28T19:30:20.609Z,3.41
2023-02-28T19:32:49.376Z,3.38
2023-02-28T19:35:16.846Z,3.37
2023-02-28T19:37:44.091Z,3.41
2023-02-28T19:40:13.796Z,3.36
2023-02-28T19:42:41.074Z,3.20
2023-02-28T19:45:14.687Z,3.10
2023-02-28T19:47:42.505Z,3.08
2023-02-28T19:50:11.873Z,3.05
2023-02-28T19:52:39.086Z,3.02
2023-02-28T19:55:07.056Z,3.01
2023-02-28T19:57:34.387Z,2.92
2023-02-28T20:00:02.222Z,2.90
2023-02-28T20:02:40.912Z,2.85
2023-02-28T20:05:09.686Z,2.89
2023-02-28T20:07:38.245Z,2.92
2023-02-28T20:10:06.440Z,2.76
2023-02-28T20:12:33.725Z,2.65
2023-02-28T20:15:00.981Z,2.56
2023-02-28T20:17:30.622Z,2.56
2023-02-28T20:19:57.985Z,2.58
2023-02-28T20:22:25.364Z,2.58
2023-02-28T20:24:53.949Z,2.57
2023-02-28T20:27:21.598Z,2.48
2023-02-28T20:29:48.887Z,2.54
2023-02-28T20:32:16.167Z,2.51
2023-02-28T20:34:43.604Z,2.44
2023-02-28T20:37:11.446Z,2.42
2023-02-28T20:39:38.748Z,2.47
2023-02-28T20:42:06.178Z,2.38
2023-02-28T20:44:33.461Z,2.31
2023-02-28T20:47:00.850Z,2.27
2023-02-28T20:49:30.432Z,2.28
2023-02-28T20:52:00.111Z,2.30
2023-02-28T20:54:28.693Z,2.32
2023-02-28T20:56:56.924Z,2.29
2023-02-28T20:59:24.282Z,2.31
2023-02-28T21:01:51.920Z,2.30
2023-02-28T21:04:19.228Z,2.32
2023-02-28T21:06:47.624Z,2.33
2023-02-28T21:09:15.988Z,2.26
2023-02-28T21:11:43.715Z,2.24
2023-02-28T21:14:17.725Z,2.21
2023-02-28T21:16:51.239Z,2.14
2023-02-28T21:19:18.742Z,2.12
2023-02-28T21:21:48.038Z,2.09
2023-02-28T21:24:19.705Z,2.14
2023-02-28T21:26:47.727Z,2.10
2023-02-28T21:29:15.641Z,2.04
2023-02-28T21:31:43.802Z,1.99
2023-02-28T21:34:14.293Z,1.92
2023-02-28T21:36:47.411Z,1.89
2023-02-28T21:39:25.953Z,1.87
2023-02-28T21:41:56.808Z,1.91
2023-02-28T21:44:25.712Z,1.92
2023-02-28T21:46:56.792Z,1.93
2023-02-28T21:49:24.211Z,2.01
2023-02-28T21:51:51.517Z,1.98
2023-02-28T21:54:18.738Z,1.98
2023-02-28T21:56:47.338Z,1.97
2023-02-28T21:59:14.525Z,1.94
2023-02-28T22:01:44.473Z,1.82
2023-02-28T22:04:22.417Z,1.67
2023-02-28T22:06:59.092Z,1.72
2023-02-28T22:09:27.561Z,1.76
2023-02-28T22:11:56.256Z,1.86
2023-02-28T22:14:23.911Z,1.88
2023-02-28T22:16:54.170Z,1.89
2023-02-28T22:19:23.754Z,1.91
2023-02-28T22:21:53.603Z,1.93
2023-02-28T22:24:24.097Z,1.94
2023-02-28T22:26:52.558Z,1.99
2023-02-28T22:29:19.783Z,2.07
2023-02-28T22:31:47.078Z,2.16
2023-02-28T22:34:14.463Z,2.02
2023-02-28T22:36:43.566Z,1.93
2023-02-28T22:39:11.591Z,1.88
2023-02-28T22:41:39.300Z,1.84
2023-02-28T22:44:07.396Z,1.93
2023-02-28T22:46:36.405Z,1.97
2023-02-28T22:49:05.623Z,2.10
2023-02-28T22:51:33.649Z,2.18
2023-02-28T22:54:01.955Z,2.19
2023-02-28T22:56:31.023Z,2.26
2023-02-28T22:59:01.643Z,2.28
2023-02-28T23:01:34.328Z,2.30
2023-02-28T23:04:02.793Z,2.32
2023-02-28T23:06:42.066Z,2.39
2023-02-28T23:09:18.154Z,2.42
2023-02-28T23:11:50.335Z,2.41
2023-02-28T23:14:19.969Z,2.43
2023-02-28T23:16:55.455Z,2.40
2023-02-28T23:19:30.889Z,2.46
2023-02-28T23:22:00.425Z,2.53
2023-02-28T23:24:33.268Z,2.45
2023-02-28T23:27:05.415Z,2.43
2023-02-28T23:29:33.746Z,2.57
2023-02-28T23:32:01.074Z,2.48
2023-02-28T23:34:30.369Z,2.42
2023-02-28T23:37:01.045Z,2.36
2023-02-28T23:39:31.213Z,2.35
2023-02-28T23:42:00.213Z,2.31
2023-02-28T23:44:27.541Z,2.36
2023-02-28T23:46:55.559Z,2.31
2023-02-28T23:49:23.385Z,2.25
2023-02-28T23:51:52.199Z,2.22
2023-02-28T23:54:20.074Z,2.21
2023-02-28T23:56:47.547Z,2.21
2023-02-28T23:59:14.804Z,2.24
